Time;durP1;ratioP1;P1;durP2;ratioP2;P2;SDS_P1;SDS_P2;PMS_P1;PMS_P2;Temp;Humidity;BMP_temperature;BMP_pressure;BME280_temperature;BME280_humidity;BME280_pressure;Samples;Min_cycle;Max_cycle;Signal;HPM_P1;HPM_P2
2021/12/05 00:18:17;;;;;;;38.10;20.20;;;;;;;-1.32;76.04;99316.38;88478;1272;88788;-65
2021/12/05 00:20:57;;;;;;;41.30;20.80;;;;;;;-1.29;75.88;99323.19;88330;1270;94821;-67
2021/12/05 00:23:12;;;;;;;40.80;21.00;;;;;;;-1.33;75.91;99324.94;88423;1267;79904;-66
2021/12/05 00:25:28;;;;;;;39.50;21.60;;;;;;;-1.38;75.87;99321.65;88458;1276;82656;-64
2021/12/05 00:27:45;;;;;;;37.60;20.90;;;;;;;-1.36;75.88;99323.11;88489;1268;98415;-67
2021/12/05 00:30:08;;;;;;;34.50;19.50;;;;;;;-1.41;75.76;99330.59;88471;1274;89409;-63
2021/12/05 00:32:23;;;;;;;42.80;21.50;;;;;;;-1.46;75.82;99335.35;88448;1272;95680;-65
2021/12/05 00:40:09;;;;;;;39.70;20.60;;;;;;;-1.61;75.90;99341.09;88475;1267;97886;-65
2021/12/05 00:42:59;;;;;;;33.60;19.20;;;;;;;-1.63;76.02;99342.39;88471;1268;89495;-61
2021/12/05 00:47:43;;;;;;;38.30;20.00;;;;;;;-1.62;76.10;99342.15;88470;1275;79418;-65
2021/12/05 00:50:12;;;;;;;40.50;21.00;;;;;;;-1.54;76.35;99342.45;88317;1270;83194;-66
2021/12/05 00:52:59;;;;;;;37.40;20.60;;;;;;;-1.51;76.14;99340.33;88460;1275;97433;-66
2021/12/05 00:57:41;;;;;;;36.80;20.30;;;;;;;-1.55;76.15;99345.13;88429;1274;95639;-66
2021/12/05 01:00:08;;;;;;;36.90;21.30;;;;;;;-1.58;76.13;99345.40;88462;1272;77333;-66
2021/12/05 01:02:34;;;;;;;36.90;19.90;;;;;;;-1.64;76.02;99350.55;88501;1274;81821;-60
2021/12/05 01:05:21;;;;;;;37.40;21.50;;;;;;;-1.69;76.07;99350.38;88470;1274;96759;-60
2021/12/05 01:07:56;;;;;;;38.40;21.00;;;;;;;-1.78;76.22;99350.98;88488;1272;88681;-60
2021/12/05 01:10:14;;;;;;;;;;;;;;;-1.86;76.25;99348.85;88498;1275;95086;-60
2021/12/05 01:12:41;;;;;;;37.60;20.30;;;;;;;-1.93;76.28;99355.61;88490;1274;78262;-66
2021/12/05 01:15:01;;;;;;;39.00;21.10;;;;;;;-1.94;76.44;99361.88;88487;1274;83133;-65
2021/12/05 01:17:11;;;;;;;41.60;21.90;;;;;;;-1.97;76.45;99364.45;88462;1268;96931;-60
2021/12/05 01:19:23;;;;;;;37.90;21.30;;;;;;;-1.99;76.48;99363.25;88451;1277;89257;-61
2021/12/05 01:21:33;;;;;;;39.50;22.10;;;;;;;-1.97;76.95;99363.91;88452;1274;94755;-61
2021/12/05 01:23:57;;;;;;;36.30;20.40;;;;;;;-1.92;76.87;99360.11;88481;1269;77876;-60
2021/12/05 01:26:10;;;;;;;37.60;19.50;;;;;;;-1.85;76.90;99360.20;88479;1272;81959;-61
2021/12/05 01:28:29;;;;;;;37.90;20.10;;;;;;;-1.82;76.84;99363.27;88484;1275;98373;-60
2021/12/05 01:30:41;;;;;;;36.00;20.70;;;;;;;-1.76;77.27;99365.39;88477;1275;89054;-62
2021/12/05 01:33:00;;;;;;;36.20;20.70;;;;;;;-1.70;77.06;99366.64;88461;1268;94538;-60
2021/12/05 01:35:25;;;;;;;37.00;21.30;;;;;;;-1.68;77.12;99362.00;88461;1275;77782;-60
2021/12/05 01:37:45;;;;;;;37.20;20.20;;;;;;;-1.68;76.95;99357.95;88500;1268;82157;-61
2021/12/05 01:45:02;;;;;;;39.10;21.00;;;;;;;-1.70;77.14;99353.22;88477;1275;94048;-60
2021/12/05 02:10:42;;;;;;;36.40;20.10;;;;;;;-1.09;77.05;99334.00;88270;1279;95303;-64
2021/12/05 02:15:27;;;;;;;39.80;21.00;;;;;;;-1.10;76.91;99336.19;88470;1274;81270;-63
2021/12/05 02:33:02;;;;;;;33.70;17.90;;;;;;;-0.80;76.70;99336.91;88199;1279;86900;-60
2021/12/05 02:35:22;;;;;;;31.50;19.10;;;;;;;-0.70;76.90;99340.23;88459;1274;95154;-60
2021/12/05 02:42:32;;;;;;;32.80;19.00;;;;;;;-0.61;76.70;99340.44;88446;1274;99214;-59
2021/12/05 02:44:44;;;;;;;31.10;18.60;;;;;;;-0.57;76.54;99344.99;88453;1274;88644;-60
2021/12/05 02:46:59;;;;;;;35.60;19.80;;;;;;;-0.58;76.52;99342.98;88491;1272;95298;-66
2021/12/05 02:49:11;;;;;;;34.50;19.70;;;;;;;-0.58;76.56;99339.41;88459;1269;77514;-66
2021/12/05 02:51:25;;;;;;;34.50;20.20;;;;;;;-0.58;76.25;99336.42;88471;1274;81399;-61
2021/12/05 02:53:38;;;;;;;35.00;19.90;;;;;;;-0.59;76.38;99336.13;88463;1268;97418;-60
2021/12/05 02:55:47;;;;;;;;;;;;;;;-0.62;76.34;99330.73;88399;1278;90475;-60
2021/12/05 02:58:00;;;;;;;35.00;19.60;;;;;;;-0.64;76.24;99325.84;88441;1274;95513;-66
2021/12/05 03:00:19;;;;;;;35.80;19.50;;;;;;;-0.63;76.32;99319.95;88305;1280;79538;-67
2021/12/05 03:02:38;;;;;;;34.80;19.10;;;;;;;-0.62;76.37;99319.14;88471;1277;80762;-61
2021/12/05 03:04:54;;;;;;;34.70;18.70;;;;;;;-0.57;76.38;99319.16;88461;1274;97848;-60
2021/12/05 03:07:06;;;;;;;34.50;18.70;;;;;;;-0.53;76.21;99316.14;88499;1269;88895;-67
2021/12/05 03:09:20;;;;;;;33.40;19.30;;;;;;;-0.48;76.37;99318.33;88471;1274;95024;-67
2021/12/05 03:11:30;;;;;;;31.70;19.20;;;;;;;-0.44;76.12;99315.68;88464;1271;79975;-61
2021/12/05 03:13:43;;;;;;;35.90;20.90;;;;;;;-0.43;76.13;99319.12;88465;1274;82753;-60
2021/12/05 03:15:58;;;;;;;37.60;20.60;;;;;;;-0.42;76.08;99314.89;88469;1270;97792;-62
2021/12/05 03:18:07;;;;;;;35.20;20.10;;;;;;;-0.44;76.04;99311.39;88429;1271;89248;-60
2021/12/05 03:20:22;;;;;;;36.60;20.90;;;;;;;-0.47;76.11;99308.83;88435;1272;95307;-61
2021/12/05 03:22:32;;;;;;;35.50;20.80;;;;;;;-0.50;75.99;99309.02;88456;1270;77287;-67
2021/12/05 03:24:42;;;;;;;36.50;21.40;;;;;;;-0.55;76.12;99306.82;88468;1275;82787;-68
2021/12/05 03:26:54;;;;;;;36.50;20.00;;;;;;;-0.60;76.06;99309.92;88459;1275;98443;-60
2021/12/05 03:29:11;;;;;;;36.70;20.90;;;;;;;-0.62;76.07;99310.64;88497;1276;89039;-60
2021/12/05 03:31:21;;;;;;;36.30;20.60;;;;;;;-0.62;75.98;99310.12;88476;1274;94135;-65
2021/12/05 03:33:29;;;;;;;35.90;19.60;;;;;;;-0.59;76.03;99312.33;88426;1270;79193;-65
2021/12/05 03:35:38;;;;;;;33.20;19.30;;;;;;;-0.57;76.15;99310.35;88450;1274;82381;-67
2021/12/05 03:37:48;;;;;;;36.80;20.30;;;;;;;-0.54;75.98;99306.90;88477;1269;98390;-67
2021/12/05 03:39:57;;;;;;;36.80;19.40;;;;;;;-0.53;76.05;99305.52;88498;1276;86795;-66
2021/12/05 03:42:11;;;;;;;36.30;19.60;;;;;;;-0.53;75.90;99306.25;88443;1275;94944;-67
2021/12/05 03:44:26;;;;;;;35.40;19.90;;;;;;;-0.52;75.94;99310.94;88486;1277;76385;-66
2021/12/05 03:46:36;;;;;;;35.30;20.00;;;;;;;-0.54;75.86;99319.41;88522;1271;80318;-67
2021/12/05 03:48:53;;;;;;;32.40;19.40;;;;;;;-0.57;75.68;99320.77;88453;1276;97520;-67
2021/12/05 03:51:07;;;;;;;32.70;19.40;;;;;;;-0.65;75.83;99323.80;88472;1267;87979;-60
2021/12/05 03:53:18;;;;;;;34.00;19.60;;;;;;;-0.71;75.74;99318.15;88329;1270;96215;-66
2021/12/05 03:55:31;;;;;;;36.50;20.10;;;;;;;-0.76;75.69;99317.64;88467;1276;80211;-60
2021/12/05 03:57:43;;;;;;;32.80;19.80;;;;;;;-0.83;75.73;99320.73;88497;1276;81414;-66
2021/12/05 03:59:52;;;;;;;33.50;19.50;;;;;;;-0.95;75.84;99319.95;88442;1274;98311;-66
2021/12/05 04:02:06;;;;;;;36.00;20.60;;;;;;;-1.06;76.01;99320.67;88440;1267;86020;-66
2021/12/05 04:04:14;;;;;;;;;;;;;;;-1.12;76.07;99317.87;88504;1269;94530;-66
2021/12/05 04:06:27;;;;;;;36.70;19.70;;;;;;;-1.18;76.03;99318.96;88455;1274;80026;-65
2021/12/05 04:08:39;;;;;;;33.20;20.20;;;;;;;-1.18;76.20;99321.11;88446;1273;82240;-64
2021/12/05 04:10:55;;;;;;;29.90;17.90;;;;;;;-1.15;76.12;99321.17;88439;1277;98893;-66
2021/12/05 04:13:08;;;;;;;36.20;19.70;;;;;;;-1.13;76.25;99320.27;88450;1275;88726;-61
2021/12/05 04:15:18;;;;;;;32.60;18.90;;;;;;;-1.10;76.23;99321.75;88448;1274;94817;-61
2021/12/05 04:17:28;;;;;;;36.40;19.70;;;;;;;-1.11;76.17;99325.20;88463;1272;78199;-61
2021/12/05 04:19:41;;;;;;;34.20;19.10;;;;;;;-1.17;76.34;99326.46;88499;1274;81497;-61
2021/12/05 04:21:54;;;;;;;32.20;19.70;;;;;;;-1.19;76.23;99327.73;88487;1274;98907;-61
2021/12/05 04:24:08;;;;;;;33.70;20.50;;;;;;;-1.23;76.29;99326.34;88473;1274;88742;-61
2021/12/05 04:26:18;;;;;;;30.10;19.30;;;;;;;-1.28;76.18;99332.08;88478;1277;93681;-60
2021/12/05 04:28:29;;;;;;;33.90;19.20;;;;;;;-1.32;76.23;99332.95;88473;1274;80250;-60
2021/12/05 04:30:41;;;;;;;29.70;18.10;;;;;;;-1.40;76.40;99338.61;88458;1277;83238;-60
2021/12/05 04:32:51;;;;;;;30.10;18.70;;;;;;;-1.45;76.33;99343.52;88466;1274;98093;-66
2021/12/05 04:35:01;;;;;;;34.30;19.20;;;;;;;-1.51;76.30;99347.05;88474;1274;88911;-67
2021/12/05 04:37:10;;;;;;;32.50;18.60;;;;;;;-1.56;76.40;99356.20;88406;1270;94693;-69
2021/12/05 04:39:22;;;;;;;34.40;19.70;;;;;;;-1.58;76.53;99356.41;88448;1275;81186;-68
2021/12/05 04:41:31;;;;;;;34.00;19.40;;;;;;;-1.62;76.52;99360.45;88450;1275;80654;-63
2021/12/05 04:43:41;;;;;;;31.20;18.20;;;;;;;-1.64;76.77;99363.80;88476;1270;97952;-63
2021/12/05 04:45:50;;;;;;;31.20;18.00;;;;;;;-1.65;76.74;99362.98;88438;1269;87939;-63
2021/12/05 04:48:00;;;;;;;37.90;20.70;;;;;;;-1.59;76.74;99362.13;88472;1276;93286;-70
2021/12/05 04:50:16;;;;;;;32.90;18.60;;;;;;;-1.55;76.83;99363.35;88483;1271;77707;-71
2021/12/05 04:52:25;;;;;;;32.90;19.20;;;;;;;-1.53;76.98;99368.69;88496;1276;82668;-69
2021/12/05 04:54:34;;;;;;;34.50;19.80;;;;;;;-1.50;76.97;99374.91;88447;1277;98941;-69
2021/12/05 04:56:48;;;;;;;31.80;19.00;;;;;;;-1.51;77.15;99375.52;88500;1274;89921;-70
2021/12/05 04:59:03;;;;;;;30.70;18.20;;;;;;;-1.58;77.10;99376.70;88408;1275;94886;-72
2021/12/05 05:01:12;;;;;;;32.30;18.80;;;;;;;-1.59;77.36;99385.25;88461;1274;76646;-60
2021/12/05 05:03:25;;;;;;;30.80;18.60;;;;;;;-1.60;77.27;99385.32;88491;1270;83497;-61
2021/12/05 05:05:35;;;;;;;29.70;18.80;;;;;;;-1.64;77.18;99381.09;88452;1273;98481;-61
2021/12/05 05:07:44;;;;;;;34.80;20.30;;;;;;;-1.67;77.17;99372.93;88467;1277;86553;-64
2021/12/05 05:10:01;;;;;;;30.40;18.90;;;;;;;-1.68;77.20;99368.73;88467;1274;93071;-62
2021/12/05 05:12:14;;;;;;;32.40;19.20;;;;;;;-1.64;77.42;99366.30;88415;1274;81756;-70
2021/12/05 05:14:23;;;;;;;31.80;18.30;;;;;;;-1.58;77.34;99371.91;88380;1270;83404;-70
2021/12/05 05:16:32;;;;;;;31.80;19.50;;;;;;;-1.54;77.58;99371.95;88410;1276;98893;-63
2021/12/05 05:18:45;;;;;;;32.00;18.80;;;;;;;-1.49;77.43;99373.70;88385;1277;88259;-61
2021/12/05 05:21:00;;;;;;;;;;;;;;;-1.43;77.54;99373.38;88422;1277;94944;-66
2021/12/05 05:23:23;;;;;;;32.90;17.80;;;;;;;-1.47;77.44;99370.00;88355;1277;77646;-62
2021/12/05 05:28:23;;;;;;;27.30;16.60;;;;;;;-1.49;77.38;99374.65;88240;1275;191719;-62
2021/12/05 05:30:52;;;;;;;32.00;17.90;;;;;;;-1.55;77.38;99370.55;88358;1277;87847;-68
2021/12/05 05:41:18;;;;;;;31.80;18.80;;;;;;;-1.73;77.41;99363.36;88163;1280;96562;-66
2021/12/05 05:43:36;;;;;;;34.30;19.80;;;;;;;-1.72;77.59;99358.88;88140;1281;87953;-67
2021/12/05 05:45:58;;;;;;;34.40;19.10;;;;;;;-1.68;77.68;99364.93;88155;1275;94037;-67
2021/12/05 05:48:33;;;;;;;33.10;19.20;;;;;;;-1.63;77.63;99366.89;88157;1281;79713;-67
2021/12/05 05:50:46;;;;;;;32.90;19.40;;;;;;;-1.60;77.82;99366.67;88184;1278;80922;-70
2021/12/05 05:52:54;;;;;;;35.40;19.60;;;;;;;-1.58;77.69;99369.49;88168;1274;97692;-67
2021/12/05 05:55:04;;;;;;;34.60;20.00;;;;;;;-1.52;77.76;99368.72;88152;1281;87750;-67
2021/12/05 05:57:19;;;;;;;32.50;19.10;;;;;;;-1.52;77.84;99369.45;88286;1277;95086;-68
2021/12/05 05:59:34;;;;;;;33.70;19.50;;;;;;;-1.50;77.57;99361.13;88353;1277;78044;-65
2021/12/05 06:02:03;;;;;;;32.00;19.90;;;;;;;-1.57;77.72;99359.98;88396;1276;83021;-60
2021/12/05 06:04:15;;;;;;;35.30;20.20;;;;;;;-1.60;77.71;99365.73;88391;1277;98720;-59
2021/12/05 06:06:25;;;;;;;34.30;19.70;;;;;;;-1.65;77.66;99367.31;88409;1275;87945;-67
2021/12/05 06:08:39;;;;;;;38.90;20.50;;;;;;;-1.71;77.72;99367.08;88358;1277;94642;-66
2021/12/05 06:10:49;;;;;;;33.20;19.40;;;;;;;-1.74;77.83;99370.41;88359;1277;78946;-66
2021/12/05 06:12:58;;;;;;;32.70;19.30;;;;;;;-1.80;77.99;99371.91;88410;1277;79076;-63
2021/12/05 06:15:12;;;;;;;33.00;19.70;;;;;;;-1.83;77.97;99372.01;88471;1274;98227;-62
2021/12/05 06:17:21;;;;;;;32.60;19.40;;;;;;;-1.79;78.02;99369.51;88466;1274;87906;-60
2021/12/05 06:19:34;;;;;;;32.70;19.50;;;;;;;-1.73;78.08;99368.90;88471;1269;93770;-60
2021/12/05 06:21:46;;;;;;;31.50;19.30;;;;;;;-1.69;78.15;99374.02;88456;1274;79134;-67
2021/12/05 06:23:58;;;;;;;36.50;20.10;;;;;;;-1.65;78.25;99374.14;88453;1273;80406;-67
2021/12/05 06:26:11;;;;;;;33.50;20.10;;;;;;;-1.61;78.21;99373.77;88483;1274;98874;-61
2021/12/05 06:28:28;;;;;;;33.00;19.60;;;;;;;-1.56;78.07;99380.77;88447;1274;88116;-60
2021/12/05 06:30:48;;;;;;;33.40;19.80;;;;;;;-1.60;78.21;99384.23;88454;1274;95600;-60
2021/12/05 06:38:05;;;;;;;31.80;20.80;;;;;;;-1.64;78.01;99393.31;88461;1274;96845;-60
2021/12/05 06:42:59;;;;;;;35.70;20.60;;;;;;;-1.67;77.93;99399.59;88467;1274;95711;-62
2021/12/05 06:47:38;;;;;;;32.80;20.10;;;;;;;-1.69;78.11;99404.14;88459;1275;81391;-66
2021/12/05 06:49:47;;;;;;;36.50;21.00;;;;;;;-1.66;78.08;99409.52;88461;1268;98263;-66
2021/12/05 06:51:56;;;;;;;37.40;21.90;;;;;;;-1.62;77.99;99408.98;88449;1273;88001;-67
2021/12/05 06:54:08;;;;;;;39.90;24.00;;;;;;;-1.58;78.13;99412.18;88455;1269;95544;-65
2021/12/05 06:56:18;;;;;;;39.90;23.60;;;;;;;-1.51;78.14;99416.44;88462;1277;77747;-66
2021/12/05 06:58:31;;;;;;;36.60;22.10;;;;;;;-1.47;78.01;99420.00;88489;1274;80842;-66
2021/12/05 07:00:43;;;;;;;41.80;23.70;;;;;;;-1.44;77.93;99418.67;88480;1272;99168;-66
2021/12/05 07:02:53;;;;;;;38.60;24.00;;;;;;;-1.43;78.01;99419.23;88459;1269;87541;-66
2021/12/05 07:05:18;;;;;;;39.60;23.50;;;;;;;-1.48;77.91;99419.86;88445;1268;94052;-68
2021/12/05 07:07:31;;;;;;;45.40;25.10;;;;;;;-1.49;77.89;99427.00;88456;1274;77584;-61
2021/12/05 07:09:41;;;;;;;42.90;24.90;;;;;;;-1.55;77.92;99429.36;88495;1277;80164;-59
2021/12/05 07:12:08;;;;;;;37.10;22.40;;;;;;;-1.57;77.73;99429.55;88472;1269;98698;-68
2021/12/05 07:14:35;;;;;;;37.90;22.40;;;;;;;-1.59;77.90;99432.86;88445;1274;88755;-67
2021/12/05 07:16:51;;;;;;;39.20;22.90;;;;;;;-1.61;77.91;99436.23;88456;1272;94216;-60
2021/12/05 07:19:18;;;;;;;40.30;22.50;;;;;;;-1.61;77.97;99431.69;88453;1269;80110;-60
2021/12/05 07:21:38;;;;;;;36.00;22.50;;;;;;;-1.56;77.92;99433.33;88455;1269;80156;-65
2021/12/05 07:23:56;;;;;;;34.00;21.10;;;;;;;-1.51;77.89;99439.56;88454;1276;97850;-65
2021/12/05 07:26:12;;;;;;;36.60;22.70;;;;;;;-1.44;77.93;99437.58;88462;1274;88211;-61
2021/12/05 07:40:33;;;;;;;41.10;23.30;;;;;;;-0.98;77.63;99444.94;88449;1276;95095;-66
2021/12/05 07:42:42;;;;;;;36.00;21.70;;;;;;;-0.95;77.52;99447.55;88483;1272;78163;-66
2021/12/05 07:44:52;;;;;;;38.60;23.10;;;;;;;-0.89;77.36;99446.79;88465;1274;81634;-65
2021/12/05 07:47:02;;;;;;;39.70;22.60;;;;;;;-0.86;77.54;99441.91;88477;1268;97667;-66
2021/12/05 07:49:11;;;;;;;38.70;22.60;;;;;;;-0.85;77.30;99437.80;88464;1269;87935;-66
2021/12/05 07:51:26;;;;;;;36.70;22.00;;;;;;;-0.87;77.24;99442.18;88461;1274;94802;-67
2021/12/05 07:53:44;;;;;;;40.30;22.40;;;;;;;-0.83;77.15;99440.56;88410;1278;81407;-66
2021/12/05 07:55:57;;;;;;;50.50;25.40;;;;;;;-0.86;77.24;99441.20;88457;1276;80200;-63
2021/12/05 07:58:14;;;;;;;43.70;24.00;;;;;;;-0.82;77.28;99441.20;88428;1269;97941;-66
2021/12/05 08:00:30;;;;;;;41.50;24.00;;;;;;;-0.74;77.19;99440.07;88446;1274;86874;-65
2021/12/05 08:14:56;;;;;;;40.30;24.60;;;;;;;-0.61;76.66;99448.30;88465;1274;93620;-61
2021/12/05 08:17:13;;;;;;;39.30;23.40;;;;;;;-0.58;76.84;99446.36;88437;1274;77619;-67
2021/12/05 08:19:22;;;;;;;37.90;23.70;;;;;;;-0.59;76.53;99452.31;88454;1269;82807;-68
2021/12/05 08:21:32;;;;;;;42.00;24.30;;;;;;;-0.64;76.72;99455.77;88473;1274;98612;-60
2021/12/05 08:23:41;;;;;;;43.80;27.40;;;;;;;-0.64;76.77;99458.48;88474;1274;88648;-61
2021/12/05 08:25:58;;;;;;;44.30;26.30;;;;;;;-0.66;76.58;99459.65;88482;1274;91859;-63
2021/12/05 08:28:24;;;;;;;38.70;23.70;;;;;;;-0.66;76.66;99463.34;88462;1274;81405;-59
2021/12/05 08:30:36;;;;;;;39.40;23.60;;;;;;;-0.61;76.82;99463.48;88449;1269;82111;-62
2021/12/05 08:33:07;;;;;;;40.10;23.90;;;;;;;-0.60;76.62;99468.70;88454;1274;98393;-67
2021/12/05 08:35:34;;;;;;;38.80;22.90;;;;;;;-0.50;76.59;99464.58;88463;1269;88563;-68
2021/12/05 08:43:32;;;;;;;43.20;24.60;;;;;;;-0.26;76.54;99465.09;88470;1274;82055;-61
2021/12/05 08:46:18;;;;;;;44.20;25.30;;;;;;;-0.15;76.24;99469.36;88454;1274;98895;-61
2021/12/05 09:19:27;;;;;;;39.90;23.60;;;;;;;-0.27;75.93;99473.16;88423;1276;81022;-68
2021/12/05 09:29:07;;;;;;;47.60;24.80;;;;;;;0.14;75.66;99465.67;88346;1271;93326;-68
2021/12/05 09:38:33;;;;;;;42.90;25.90;;;;;;;0.15;75.54;99468.80;88483;1268;77412;-62
2021/12/05 10:06:58;;;;;;;37.80;22.90;;;;;;;0.53;74.67;99468.98;88304;1276;95040;-61
2021/12/05 10:09:23;;;;;;;38.20;23.50;;;;;;;0.56;74.75;99468.52;88302;1271;77884;-62
2021/12/05 10:11:39;;;;;;;;;;;;;;;0.58;74.62;99466.55;88489;1268;80730;-64
2021/12/05 10:16:20;;;;;;;37.90;23.00;;;;;;;0.55;74.53;99466.64;88269;1274;88280;-61
2021/12/05 10:27:08;;;;;;;43.40;25.10;;;;;;;0.49;74.42;99463.02;88436;1274;96598;-61
2021/12/05 10:34:59;;;;;;;42.30;24.30;;;;;;;0.44;74.28;99452.56;88202;1272;80327;-61
2021/12/05 10:37:20;;;;;;;38.20;23.30;;;;;;;0.49;74.28;99455.61;88164;1282;83341;-61
2021/12/05 10:39:33;;;;;;;35.00;22.80;;;;;;;0.44;74.49;99456.39;88194;1277;97518;-60
2021/12/05 10:42:00;;;;;;;38.20;22.80;;;;;;;0.48;74.45;99455.14;88190;1277;90136;-62
2021/12/05 10:44:13;;;;;;;38.10;22.30;;;;;;;0.52;74.47;99452.82;88457;1269;93818;-61
2021/12/05 10:46:25;;;;;;;39.60;23.20;;;;;;;0.59;74.56;99453.27;88448;1274;77869;-61
2021/12/05 10:48:43;;;;;;;40.30;22.90;;;;;;;0.66;74.50;99454.61;88431;1272;81943;-61
2021/12/05 10:50:58;;;;;;;38.10;23.70;;;;;;;0.72;74.59;99455.45;88455;1276;99279;-63
2021/12/05 10:53:29;;;;;;;38.50;23.60;;;;;;;0.77;74.45;99452.14;88459;1266;87883;-61
2021/12/05 10:55:43;;;;;;;38.90;25.10;;;;;;;0.76;74.22;99446.55;88439;1269;94975;-60
2021/12/05 10:58:04;;;;;;;40.70;24.80;;;;;;;0.71;74.27;99447.92;88413;1275;79586;-67
2021/12/05 11:00:22;;;;;;;42.10;25.80;;;;;;;0.66;74.23;99447.50;88416;1271;84434;-66
2021/12/05 11:02:35;;;;;;;46.10;26.80;;;;;;;0.63;74.36;99444.30;88451;1276;98311;-67
2021/12/05 11:04:50;;;;;;;47.10;27.20;;;;;;;0.54;74.37;99440.36;88469;1276;88808;-66
2021/12/05 11:07:03;;;;;;;180.90;107.90;;;;;;;0.53;74.29;99443.64;88456;1271;93366;-67
2021/12/05 11:09:17;;;;;;;69.60;41.50;;;;;;;0.46;74.29;99442.90;88435;1272;78556;-67
2021/12/05 11:11:28;;;;;;;47.10;27.80;;;;;;;0.40;74.54;99442.96;88517;1271;82290;-60
2021/12/05 11:13:44;;;;;;;48.20;28.90;;;;;;;0.31;74.55;99448.31;88453;1274;98328;-61
2021/12/05 11:15:55;;;;;;;47.80;26.30;;;;;;;0.29;74.36;99444.45;88450;1269;87563;-64
2021/12/05 11:18:09;;;;;;;45.40;27.20;;;;;;;0.31;74.51;99448.30;88439;1269;95121;-60
2021/12/05 11:20:29;;;;;;;49.80;28.70;;;;;;;0.32;74.55;99448.54;88443;1269;79407;-60
2021/12/05 11:22:41;;;;;;;44.10;27.20;;;;;;;0.33;74.60;99448.28;88449;1270;82948;-60
2021/12/05 11:24:59;;;;;;;42.60;26.00;;;;;;;0.35;74.63;99450.23;88467;1269;96654;-60
2021/12/05 11:27:31;;;;;;;45.00;27.00;;;;;;;0.38;74.68;99452.90;88447;1269;87185;-60
2021/12/05 11:30:00;;;;;;;46.40;27.80;;;;;;;0.39;74.82;99455.00;88489;1268;92149;-60
2021/12/05 11:32:15;;;;;;;45.30;27.90;;;;;;;0.39;74.76;99458.10;88447;1271;79977;-61
2021/12/05 11:34:33;;;;;;;46.10;28.30;;;;;;;0.41;74.97;99459.84;88436;1277;82822;-62
2021/12/05 11:36:42;;;;;;;46.40;28.50;;;;;;;0.49;74.67;99455.68;88468;1269;96896;-65
2021/12/05 11:38:55;;;;;;;47.80;27.90;;;;;;;0.49;74.60;99456.91;88442;1274;88177;-65
2021/12/05 11:41:08;;;;;;;49.50;27.80;;;;;;;0.46;74.64;99460.32;88478;1273;93750;-62
2021/12/05 11:43:22;;;;;;;49.60;29.40;;;;;;;0.40;74.77;99460.66;88451;1268;77931;-62
2021/12/05 11:45:49;;;;;;;48.60;29.30;;;;;;;0.37;74.64;99461.30;88485;1271;80790;-61
2021/12/05 11:48:17;;;;;;;47.30;28.00;;;;;;;0.36;74.75;99460.60;88430;1273;97744;-61
2021/12/05 11:50:38;;;;;;;48.80;27.80;;;;;;;0.26;74.65;99461.67;88439;1269;88900;-60
2021/12/05 11:52:50;;;;;;;49.20;28.30;;;;;;;0.24;74.74;99459.80;88443;1276;94734;-63
2021/12/05 11:54:59;;;;;;;48.10;28.10;;;;;;;0.20;74.79;99457.91;88463;1269;79675;-63
2021/12/05 11:57:15;;;;;;;51.50;28.30;;;;;;;0.21;74.96;99459.77;88479;1271;83084;-62
2021/12/05 11:59:28;;;;;;;45.90;28.40;;;;;;;0.22;74.91;99462.14;88444;1272;99250;-61
2021/12/05 12:01:44;;;;;;;48.00;27.40;;;;;;;0.30;74.75;99462.61;88462;1269;89283;-64
2021/12/05 12:03:57;;;;;;;49.90;27.40;;;;;;;0.36;74.97;99458.26;88426;1271;94989;-65
2021/12/05 12:06:10;;;;;;;46.40;28.00;;;;;;;0.39;75.06;99453.17;88418;1274;77348;-65
2021/12/05 12:08:20;;;;;;;39.10;21.60;;;;;;;0.47;75.13;99450.64;88459;1276;80984;-66
2021/12/05 12:10:34;;;;;;;49.30;28.10;;;;;;;0.55;75.08;99447.13;88450;1274;97479;-70
2021/12/05 12:12:52;;;;;;;51.90;29.80;;;;;;;0.60;74.97;99447.16;88453;1273;86639;-60
2021/12/05 12:15:04;;;;;;;48.40;28.80;;;;;;;0.60;75.08;99445.41;88457;1270;92994;-60
2021/12/05 12:17:16;;;;;;;54.60;30.80;;;;;;;0.63;75.15;99435.58;88458;1269;77140;-62
2021/12/05 12:19:26;;;;;;;51.40;30.20;;;;;;;0.57;75.13;99436.34;88463;1276;82532;-61
2021/12/05 12:21:42;;;;;;;61.30;34.10;;;;;;;0.55;75.19;99435.16;88444;1274;98704;-66
2021/12/05 12:23:54;;;;;;;60.20;31.90;;;;;;;0.53;75.00;99439.75;88467;1274;87020;-67
2021/12/05 12:26:10;;;;;;;58.40;31.70;;;;;;;0.53;75.07;99437.60;88494;1274;94334;-61
2021/12/05 12:28:21;;;;;;;64.40;33.40;;;;;;;0.48;75.05;99429.08;88457;1276;77494;-68
2021/12/05 12:30:37;;;;;;;60.70;34.00;;;;;;;0.49;75.21;99415.57;88456;1272;82761;-68
2021/12/05 12:32:53;;;;;;;67.10;33.20;;;;;;;0.48;75.18;99412.94;88481;1277;97970;-70
2021/12/05 12:35:15;;;;;;;64.90;33.20;;;;;;;0.43;75.23;99409.76;88509;1266;86049;-69
2021/12/05 12:37:30;;;;;;;61.90;33.30;;;;;;;0.44;75.44;99410.56;88501;1269;94502;-70
2021/12/05 12:39:45;;;;;;;66.00;33.80;;;;;;;0.47;75.60;99409.17;88447;1276;78949;-70
2021/12/05 12:42:15;;;;;;;63.70;32.70;;;;;;;0.60;75.83;99414.68;88465;1268;80955;-67
2021/12/05 12:44:32;;;;;;;58.10;30.00;;;;;;;0.74;75.58;99419.31;88495;1271;98684;-63
2021/12/05 12:46:50;;;;;;;55.80;29.10;;;;;;;0.73;75.63;99422.59;88493;1276;87385;-60
2021/12/05 12:49:27;;;;;;;46.40;26.90;;;;;;;0.76;75.48;99425.64;88440;1271;94752;-61
2021/12/05 12:51:43;;;;;;;43.00;26.70;;;;;;;0.73;75.36;99431.63;88475;1272;79142;-61
2021/12/05 12:53:57;;;;;;;46.50;26.60;;;;;;;0.65;75.52;99435.20;88476;1276;81575;-59
2021/12/05 12:56:18;;;;;;;43.50;26.30;;;;;;;0.68;75.56;99441.34;88442;1277;96724;-61
2021/12/05 12:58:50;;;;;;;44.70;27.30;;;;;;;0.70;75.55;99442.91;88310;1263;87008;-61
2021/12/05 13:01:16;;;;;;;45.30;26.70;;;;;;;0.58;75.63;99451.30;88485;1269;93595;-70
2021/12/05 13:04:02;;;;;;;44.90;25.90;;;;;;;0.55;75.76;99449.30;88445;1274;78538;-69
2021/12/05 13:11:32;;;;;;;44.70;27.70;;;;;;;0.50;76.13;99458.81;88263;1271;88493;-60
2021/12/05 13:13:44;;;;;;;42.60;26.60;;;;;;;0.55;76.18;99461.20;88280;1272;94030;-61
2021/12/05 13:16:00;;;;;;;46.10;28.50;;;;;;;0.64;76.21;99465.95;88257;1274;78801;-66
2021/12/05 13:18:29;;;;;;;42.50;25.90;;;;;;;0.66;76.28;99470.41;88288;1278;80273;-68
2021/12/05 13:20:58;;;;;;;39.30;24.50;;;;;;;0.67;76.54;99471.03;88305;1279;98267;-66
2021/12/05 13:23:12;;;;;;;37.60;25.00;;;;;;;0.73;76.41;99472.50;88272;1276;88762;-69
2021/12/05 13:25:22;;;;;;;41.80;25.60;;;;;;;0.72;76.44;99477.59;88263;1272;95437;-68
2021/12/05 13:27:36;;;;;;;50.90;30.00;;;;;;;0.65;76.48;99485.18;86937;1274;3690158;-62
2021/12/05 13:29:55;;;;;;;42.10;27.20;;;;;;;0.61;76.28;99492.35;88261;1277;77340;-60
2021/12/05 13:32:13;;;;;;;60.30;34.30;;;;;;;0.62;76.45;99496.65;88286;1277;82651;-68
2021/12/05 13:34:36;;;;;;;65.40;35.80;;;;;;;0.56;76.51;99498.14;88329;1270;96853;-62
2021/12/05 13:36:49;;;;;;;39.60;24.80;;;;;;;0.50;76.78;99504.92;88483;1269;88786;-68
2021/12/05 13:38:59;;;;;;;42.20;24.90;;;;;;;0.48;76.61;99514.62;88473;1276;94491;-67
2021/12/05 13:41:20;;;;;;;42.60;25.00;;;;;;;0.40;77.05;99523.05;88469;1268;81906;-66
2021/12/05 13:43:33;;;;;;;39.90;23.90;;;;;;;0.40;76.91;99526.88;88470;1277;80812;-67
2021/12/05 13:45:44;;;;;;;30.20;19.40;;;;;;;0.42;77.16;99526.17;88472;1268;98063;-68
2021/12/05 13:48:17;;;;;;;38.80;24.80;;;;;;;0.45;77.16;99526.13;88489;1269;88954;-68
2021/12/05 13:50:55;;;;;;;42.20;26.20;;;;;;;0.56;77.22;99523.25;88473;1271;95210;-60
2021/12/05 13:53:28;;;;;;;40.70;26.40;;;;;;;0.55;77.59;99525.29;88292;1275;76095;-68
2021/12/05 13:55:46;;;;;;;54.60;30.30;;;;;;;0.56;77.48;99523.89;88482;1269;80773;-66
2021/12/05 13:58:38;;;;;;;52.00;30.50;;;;;;;0.58;77.50;99531.19;88482;1271;97762;-66
2021/12/05 14:00:55;;;;;;;72.50;37.40;;;;;;;0.52;77.60;99531.25;88476;1269;87868;-65
2021/12/05 14:03:05;;;;;;;49.70;28.40;;;;;;;0.44;77.87;99531.71;88462;1270;95287;-66
2021/12/05 14:05:33;;;;;;;68.70;34.50;;;;;;;0.41;77.79;99528.23;88487;1269;79598;-64
2021/12/05 14:07:49;;;;;;;77.40;36.50;;;;;;;0.35;77.85;99533.47;88418;1271;81304;-65
2021/12/05 14:10:00;;;;;;;60.90;31.30;;;;;;;0.34;77.99;99534.45;88451;1272;98733;-68
2021/12/05 14:12:18;;;;;;;53.00;28.90;;;;;;;0.34;78.18;99532.15;88471;1271;88538;-68
2021/12/05 14:14:34;;;;;;;49.80;27.10;;;;;;;0.36;78.29;99529.77;88463;1277;95796;-67